sensor_id;sensor_type;location;lat;lon;timestamp;P1;durP1;ratioP1;P2;durP2;ratioP2
16510;SDS011;8368;48.772;8.754;2023-06-19T00:01:46;4.15;;;3.85;;
16510;SDS011;8368;48.772;8.754;2023-06-19T00:04:11;4.00;;;3.80;;
16510;SDS011;8368;48.772;8.754;2023-06-19T00:06:37;4.40;;;4.03;;
16510;SDS011;8368;48.772;8.754;2023-06-19T00:09:03;4.20;;;3.90;;
16510;SDS011;8368;48.772;8.754;2023-06-19T00:11:28;4.18;;;3.83;;
16510;SDS011;8368;48.772;8.754;2023-06-19T00:13:54;4.50;;;4.20;;
16510;SDS011;8368;48.772;8.754;2023-06-19T00:16:19;5.28;;;4.85;;
16510;SDS011;8368;48.772;8.754;2023-06-19T00:18:45;4.40;;;4.10;;
16510;SDS011;8368;48.772;8.754;2023-06-19T00:21:11;4.10;;;3.80;;
16510;SDS011;8368;48.772;8.754;2023-06-19T00:23:37;4.30;;;4.00;;
16510;SDS011;8368;48.772;8.754;2023-06-19T00:26:02;4.35;;;4.05;;
16510;SDS011;8368;48.772;8.754;2023-06-19T00:28:29;4.38;;;4.07;;
16510;SDS011;8368;48.772;8.754;2023-06-19T00:30:55;4.53;;;4.22;;
16510;SDS011;8368;48.772;8.754;2023-06-19T00:33:21;5.47;;;4.32;;
16510;SDS011;8368;48.772;8.754;2023-06-19T00:35:47;4.20;;;3.90;;
16510;SDS011;8368;48.772;8.754;2023-06-19T00:38:15;4.15;;;3.85;;
16510;SDS011;8368;48.772;8.754;2023-06-19T00:40:40;3.08;;;2.95;;
16510;SDS011;8368;48.772;8.754;2023-06-19T00:43:06;2.92;;;2.75;;
16510;SDS011;8368;48.772;8.754;2023-06-19T00:45:31;2.40;;;2.30;;
16510;SDS011;8368;48.772;8.754;2023-06-19T00:47:57;2.40;;;2.30;;
16510;SDS011;8368;48.772;8.754;2023-06-19T00:50:24;2.38;;;2.28;;
16510;SDS011;8368;48.772;8.754;2023-06-19T00:52:52;2.08;;;2.05;;
16510;SDS011;8368;48.772;8.754;2023-06-19T00:55:18;2.10;;;2.00;;
16510;SDS011;8368;48.772;8.754;2023-06-19T00:57:44;2.10;;;2.00;;
16510;SDS011;8368;48.772;8.754;2023-06-19T01:00:11;2.10;;;2.00;;
16510;SDS011;8368;48.772;8.754;2023-06-19T01:02:38;2.30;;;2.20;;
16510;SDS011;8368;48.772;8.754;2023-06-19T01:05:04;2.28;;;2.15;;
16510;SDS011;8368;48.772;8.754;2023-06-19T01:10:23;2.45;;;2.35;;
16510;SDS011;8368;48.772;8.754;2023-06-19T01:15:25;2.20;;;2.10;;
16510;SDS011;8368;48.772;8.754;2023-06-19T01:17:51;2.10;;;2.10;;
16510;SDS011;8368;48.772;8.754;2023-06-19T01:20:18;2.55;;;2.10;;
16510;SDS011;8368;48.772;8.754;2023-06-19T01:22:44;2.00;;;1.92;;
16510;SDS011;8368;48.772;8.754;2023-06-19T01:25:10;2.00;;;1.90;;
16510;SDS011;8368;48.772;8.754;2023-06-19T01:27:38;1.52;;;1.52;;
16510;SDS011;8368;48.772;8.754;2023-06-19T01:30:05;2.28;;;2.17;;
16510;SDS011;8368;48.772;8.754;2023-06-19T01:32:34;2.08;;;1.98;;
16510;SDS011;8368;48.772;8.754;2023-06-19T01:35:23;1.67;;;1.67;;
16510;SDS011;8368;48.772;8.754;2023-06-19T01:37:52;2.05;;;2.05;;
16510;SDS011;8368;48.772;8.754;2023-06-19T01:40:19;1.67;;;1.67;;
16510;SDS011;8368;48.772;8.754;2023-06-19T01:42:49;2.00;;;1.90;;
16510;SDS011;8368;48.772;8.754;2023-06-19T01:45:19;1.58;;;1.58;;
16510;SDS011;8368;48.772;8.754;2023-06-19T01:47:45;1.85;;;1.80;;
16510;SDS011;8368;48.772;8.754;2023-06-19T01:50:11;2.10;;;2.00;;
16510;SDS011;8368;48.772;8.754;2023-06-19T01:52:38;1.92;;;1.83;;
16510;SDS011;8368;48.772;8.754;2023-06-19T01:55:03;1.77;;;1.77;;
16510;SDS011;8368;48.772;8.754;2023-06-19T01:57:30;1.90;;;1.90;;
16510;SDS011;8368;48.772;8.754;2023-06-19T01:59:56;1.70;;;1.70;;
16510;SDS011;8368;48.772;8.754;2023-06-19T02:02:21;3.35;;;1.80;;
16510;SDS011;8368;48.772;8.754;2023-06-19T02:04:47;1.92;;;1.92;;
16510;SDS011;8368;48.772;8.754;2023-06-19T02:07:12;1.83;;;1.83;;
16510;SDS011;8368;48.772;8.754;2023-06-19T02:09:38;1.77;;;1.70;;
16510;SDS011;8368;48.772;8.754;2023-06-19T02:12:04;2.10;;;2.00;;
16510;SDS011;8368;48.772;8.754;2023-06-19T02:14:30;1.80;;;1.80;;
16510;SDS011;8368;48.772;8.754;2023-06-19T02:16:56;1.90;;;1.90;;
16510;SDS011;8368;48.772;8.754;2023-06-19T02:19:21;1.85;;;1.75;;
16510;SDS011;8368;48.772;8.754;2023-06-19T02:21:47;2.10;;;2.00;;
16510;SDS011;8368;48.772;8.754;2023-06-19T02:24:12;2.15;;;2.05;;
16510;SDS011;8368;48.772;8.754;2023-06-19T02:26:38;2.03;;;2.00;;
16510;SDS011;8368;48.772;8.754;2023-06-19T02:29:03;1.98;;;1.88;;
16510;SDS011;8368;48.772;8.754;2023-06-19T02:31:29;2.42;;;2.30;;
16510;SDS011;8368;48.772;8.754;2023-06-19T02:33:54;2.05;;;1.90;;
16510;SDS011;8368;48.772;8.754;2023-06-19T02:36:20;1.83;;;1.83;;
16510;SDS011;8368;48.772;8.754;2023-06-19T02:38:49;1.83;;;1.73;;
16510;SDS011;8368;48.772;8.754;2023-06-19T02:41:14;1.63;;;1.63;;
16510;SDS011;8368;48.772;8.754;2023-06-19T02:43:41;1.30;;;1.30;;
16510;SDS011;8368;48.772;8.754;2023-06-19T02:46:07;1.63;;;1.52;;
16510;SDS011;8368;48.772;8.754;2023-06-19T02:48:33;1.55;;;1.45;;
16510;SDS011;8368;48.772;8.754;2023-06-19T02:50:58;1.33;;;1.33;;
16510;SDS011;8368;48.772;8.754;2023-06-19T02:53:24;1.45;;;1.40;;
16510;SDS011;8368;48.772;8.754;2023-06-19T02:55:49;1.48;;;1.48;;
16510;SDS011;8368;48.772;8.754;2023-06-19T02:58:15;1.40;;;1.40;;
16510;SDS011;8368;48.772;8.754;2023-06-19T03:00:41;1.10;;;1.10;;
16510;SDS011;8368;48.772;8.754;2023-06-19T03:03:06;1.20;;;1.20;;
16510;SDS011;8368;48.772;8.754;2023-06-19T03:05:32;1.10;;;1.10;;
16510;SDS011;8368;48.772;8.754;2023-06-19T03:07:57;1.20;;;1.20;;
16510;SDS011;8368;48.772;8.754;2023-06-19T03:10:23;1.60;;;1.50;;
16510;SDS011;8368;48.772;8.754;2023-06-19T03:12:48;1.20;;;1.20;;
16510;SDS011;8368;48.772;8.754;2023-06-19T03:15:14;1.20;;;1.20;;
16510;SDS011;8368;48.772;8.754;2023-06-19T03:17:39;1.40;;;1.40;;
16510;SDS011;8368;48.772;8.754;2023-06-19T03:20:05;1.27;;;1.20;;
16510;SDS011;8368;48.772;8.754;2023-06-19T03:22:31;1.15;;;1.15;;
16510;SDS011;8368;48.772;8.754;2023-06-19T03:24:57;1.48;;;1.48;;
16510;SDS011;8368;48.772;8.754;2023-06-19T03:27:22;1.20;;;1.20;;
16510;SDS011;8368;48.772;8.754;2023-06-19T03:29:49;2.22;;;1.20;;
16510;SDS011;8368;48.772;8.754;2023-06-19T03:32:15;1.00;;;1.00;;
16510;SDS011;8368;48.772;8.754;2023-06-19T03:34:41;1.40;;;1.30;;
16510;SDS011;8368;48.772;8.754;2023-06-19T03:37:06;1.15;;;1.15;;
16510;SDS011;8368;48.772;8.754;2023-06-19T03:39:32;1.33;;;1.33;;
16510;SDS011;8368;48.772;8.754;2023-06-19T03:41:58;1.30;;;1.30;;
16510;SDS011;8368;48.772;8.754;2023-06-19T03:44:23;1.23;;;1.23;;
16510;SDS011;8368;48.772;8.754;2023-06-19T03:46:49;1.50;;;1.40;;
16510;SDS011;8368;48.772;8.754;2023-06-19T03:49:15;1.50;;;1.40;;
16510;SDS011;8368;48.772;8.754;2023-06-19T03:51:41;1.15;;;1.15;;
16510;SDS011;8368;48.772;8.754;2023-06-19T03:54:06;1.23;;;1.23;;
16510;SDS011;8368;48.772;8.754;2023-06-19T03:56:32;1.30;;;1.30;;
16510;SDS011;8368;48.772;8.754;2023-06-19T03:58:57;1.52;;;1.42;;
16510;SDS011;8368;48.772;8.754;2023-06-19T04:01:23;1.52;;;1.42;;
16510;SDS011;8368;48.772;8.754;2023-06-19T04:03:48;1.42;;;1.42;;
16510;SDS011;8368;48.772;8.754;2023-06-19T04:06:14;1.23;;;1.23;;
16510;SDS011;8368;48.772;8.754;2023-06-19T04:08:39;1.00;;;1.00;;
16510;SDS011;8368;48.772;8.754;2023-06-19T04:11:05;1.33;;;1.27;;
16510;SDS011;8368;48.772;8.754;2023-06-19T04:13:30;1.33;;;1.33;;
16510;SDS011;8368;48.772;8.754;2023-06-19T04:15:56;1.63;;;1.52;;
16510;SDS011;8368;48.772;8.754;2023-06-19T04:18:22;1.30;;;1.30;;
16510;SDS011;8368;48.772;8.754;2023-06-19T04:20:47;1.85;;;1.75;;
16510;SDS011;8368;48.772;8.754;2023-06-19T04:23:13;1.40;;;1.40;;
16510;SDS011;8368;48.772;8.754;2023-06-19T04:25:38;1.60;;;1.58;;
16510;SDS011;8368;48.772;8.754;2023-06-19T04:28:04;1.30;;;1.30;;
16510;SDS011;8368;48.772;8.754;2023-06-19T04:30:30;1.40;;;1.40;;
16510;SDS011;8368;48.772;8.754;2023-06-19T04:32:57;1.30;;;1.30;;
16510;SDS011;8368;48.772;8.754;2023-06-19T04:35:23;1.52;;;1.50;;
16510;SDS011;8368;48.772;8.754;2023-06-19T04:37:48;1.45;;;1.45;;
16510;SDS011;8368;48.772;8.754;2023-06-19T04:40:14;1.48;;;1.48;;
16510;SDS011;8368;48.772;8.754;2023-06-19T04:42:40;1.30;;;1.30;;
16510;SDS011;8368;48.772;8.754;2023-06-19T04:45:06;1.40;;;1.40;;
16510;SDS011;8368;48.772;8.754;2023-06-19T04:47:32;1.58;;;1.48;;
16510;SDS011;8368;48.772;8.754;2023-06-19T04:49:58;2.03;;;1.77;;
16510;SDS011;8368;48.772;8.754;2023-06-19T04:52:24;1.67;;;1.58;;
16510;SDS011;8368;48.772;8.754;2023-06-19T04:54:50;1.42;;;1.35;;
16510;SDS011;8368;48.772;8.754;2023-06-19T04:57:15;1.30;;;1.30;;
16510;SDS011;8368;48.772;8.754;2023-06-19T04:59:41;1.63;;;1.58;;
16510;SDS011;8368;48.772;8.754;2023-06-19T05:02:09;1.50;;;1.50;;
16510;SDS011;8368;48.772;8.754;2023-06-19T05:04:35;1.55;;;1.55;;
16510;SDS011;8368;48.772;8.754;2023-06-19T05:07:01;1.80;;;1.70;;
16510;SDS011;8368;48.772;8.754;2023-06-19T05:09:26;1.80;;;1.70;;
16510;SDS011;8368;48.772;8.754;2023-06-19T05:11:52;1.67;;;1.67;;
16510;SDS011;8368;48.772;8.754;2023-06-19T05:14:17;1.48;;;1.48;;
16510;SDS011;8368;48.772;8.754;2023-06-19T05:16:43;1.75;;;1.70;;
16510;SDS011;8368;48.772;8.754;2023-06-19T05:19:09;1.48;;;1.38;;
16510;SDS011;8368;48.772;8.754;2023-06-19T05:21:34;1.40;;;1.40;;
16510;SDS011;8368;48.772;8.754;2023-06-19T05:24:00;1.45;;;1.45;;
16510;SDS011;8368;48.772;8.754;2023-06-19T05:26:26;1.80;;;1.80;;
16510;SDS011;8368;48.772;8.754;2023-06-19T05:28:51;1.52;;;1.52;;
16510;SDS011;8368;48.772;8.754;2023-06-19T05:31:17;1.67;;;1.63;;
16510;SDS011;8368;48.772;8.754;2023-06-19T05:33:43;1.30;;;1.30;;
16510;SDS011;8368;48.772;8.754;2023-06-19T05:36:09;1.50;;;1.50;;
16510;SDS011;8368;48.772;8.754;2023-06-19T05:38:35;1.70;;;1.70;;
16510;SDS011;8368;48.772;8.754;2023-06-19T05:41:01;1.73;;;1.67;;
16510;SDS011;8368;48.772;8.754;2023-06-19T05:43:27;2.17;;;2.08;;
16510;SDS011;8368;48.772;8.754;2023-06-19T05:45:53;1.30;;;1.30;;
16510;SDS011;8368;48.772;8.754;2023-06-19T05:48:21;1.90;;;1.80;;
16510;SDS011;8368;48.772;8.754;2023-06-19T05:50:46;1.73;;;1.73;;
16510;SDS011;8368;48.772;8.754;2023-06-19T05:53:12;1.50;;;1.50;;
16510;SDS011;8368;48.772;8.754;2023-06-19T05:55:38;1.63;;;1.63;;
16510;SDS011;8368;48.772;8.754;2023-06-19T05:58:03;1.50;;;1.50;;
16510;SDS011;8368;48.772;8.754;2023-06-19T06:00:29;1.85;;;1.80;;
16510;SDS011;8368;48.772;8.754;2023-06-19T06:02:56;2.00;;;2.00;;
16510;SDS011;8368;48.772;8.754;2023-06-19T06:05:24;2.03;;;1.92;;
16510;SDS011;8368;48.772;8.754;2023-06-19T06:07:51;1.77;;;1.77;;
16510;SDS011;8368;48.772;8.754;2023-06-19T06:10:19;2.03;;;1.92;;
16510;SDS011;8368;48.772;8.754;2023-06-19T06:12:48;2.00;;;1.98;;
16510;SDS011;8368;48.772;8.754;2023-06-19T06:15:14;1.70;;;1.70;;
16510;SDS011;8368;48.772;8.754;2023-06-19T06:17:40;2.05;;;1.95;;
16510;SDS011;8368;48.772;8.754;2023-06-19T06:20:06;1.95;;;1.85;;
16510;SDS011;8368;48.772;8.754;2023-06-19T06:22:37;1.92;;;1.83;;
16510;SDS011;8368;48.772;8.754;2023-06-19T06:25:06;1.90;;;1.80;;
16510;SDS011;8368;48.772;8.754;2023-06-19T06:27:32;1.83;;;1.73;;
16510;SDS011;8368;48.772;8.754;2023-06-19T06:29:58;2.10;;;2.00;;
16510;SDS011;8368;48.772;8.754;2023-06-19T06:32:24;1.98;;;1.98;;
16510;SDS011;8368;48.772;8.754;2023-06-19T06:34:51;2.05;;;1.95;;
16510;SDS011;8368;48.772;8.754;2023-06-19T06:37:17;1.95;;;1.95;;
16510;SDS011;8368;48.772;8.754;2023-06-19T06:39:47;1.85;;;1.85;;
16510;SDS011;8368;48.772;8.754;2023-06-19T06:42:16;1.70;;;1.70;;
16510;SDS011;8368;48.772;8.754;2023-06-19T06:44:42;2.00;;;1.90;;
16510;SDS011;8368;48.772;8.754;2023-06-19T06:47:07;2.25;;;2.15;;
16510;SDS011;8368;48.772;8.754;2023-06-19T06:49:33;1.90;;;1.80;;
16510;SDS011;8368;48.772;8.754;2023-06-19T06:51:58;1.98;;;1.98;;
16510;SDS011;8368;48.772;8.754;2023-06-19T06:54:24;1.80;;;1.80;;
16510;SDS011;8368;48.772;8.754;2023-06-19T06:56:50;1.80;;;1.80;;
16510;SDS011;8368;48.772;8.754;2023-06-19T06:59:17;2.05;;;1.95;;
16510;SDS011;8368;48.772;8.754;2023-06-19T07:01:43;2.17;;;2.08;;
16510;SDS011;8368;48.772;8.754;2023-06-19T07:04:08;2.03;;;1.92;;
16510;SDS011;8368;48.772;8.754;2023-06-19T07:06:34;1.73;;;1.73;;
16510;SDS011;8368;48.772;8.754;2023-06-19T07:08:59;2.05;;;2.00;;
16510;SDS011;8368;48.772;8.754;2023-06-19T07:11:25;1.88;;;1.85;;
16510;SDS011;8368;48.772;8.754;2023-06-19T07:13:50;2.00;;;1.90;;
16510;SDS011;8368;48.772;8.754;2023-06-19T07:16:16;2.15;;;2.05;;
16510;SDS011;8368;48.772;8.754;2023-06-19T07:18:41;2.22;;;2.13;;
16510;SDS011;8368;48.772;8.754;2023-06-19T07:21:09;1.70;;;1.70;;
16510;SDS011;8368;48.772;8.754;2023-06-19T07:23:40;1.90;;;1.90;;
16510;SDS011;8368;48.772;8.754;2023-06-19T07:26:07;1.80;;;1.80;;
16510;SDS011;8368;48.772;8.754;2023-06-19T07:28:34;2.10;;;2.00;;
16510;SDS011;8368;48.772;8.754;2023-06-19T07:31:01;1.80;;;1.80;;
16510;SDS011;8368;48.772;8.754;2023-06-19T07:33:27;2.17;;;2.08;;
16510;SDS011;8368;48.772;8.754;2023-06-19T07:35:54;2.13;;;2.03;;
16510;SDS011;8368;48.772;8.754;2023-06-19T07:38:20;1.92;;;1.83;;
16510;SDS011;8368;48.772;8.754;2023-06-19T07:40:45;1.80;;;1.80;;
16510;SDS011;8368;48.772;8.754;2023-06-19T07:43:11;2.08;;;1.98;;
16510;SDS011;8368;48.772;8.754;2023-06-19T07:45:36;2.22;;;2.13;;
16510;SDS011;8368;48.772;8.754;2023-06-19T07:48:02;1.60;;;1.60;;
16510;SDS011;8368;48.772;8.754;2023-06-19T07:50:28;1.92;;;1.92;;
16510;SDS011;8368;48.772;8.754;2023-06-19T07:52:53;2.00;;;1.90;;
16510;SDS011;8368;48.772;8.754;2023-06-19T07:55:18;2.10;;;2.00;;
16510;SDS011;8368;48.772;8.754;2023-06-19T07:57:44;1.60;;;1.60;;
16510;SDS011;8368;48.772;8.754;2023-06-19T08:00:10;1.80;;;1.80;;
16510;SDS011;8368;48.772;8.754;2023-06-19T08:02:37;1.83;;;1.73;;
16510;SDS011;8368;48.772;8.754;2023-06-19T08:05:04;1.90;;;1.80;;
16510;SDS011;8368;48.772;8.754;2023-06-19T08:07:30;2.05;;;2.05;;
16510;SDS011;8368;48.772;8.754;2023-06-19T08:09:55;2.25;;;2.15;;
16510;SDS011;8368;48.772;8.754;2023-06-19T08:12:21;1.98;;;1.88;;
16510;SDS011;8368;48.772;8.754;2023-06-19T08:14:46;1.70;;;1.70;;
16510;SDS011;8368;48.772;8.754;2023-06-19T08:17:12;1.70;;;1.65;;
16510;SDS011;8368;48.772;8.754;2023-06-19T08:19:37;1.60;;;1.60;;
16510;SDS011;8368;48.772;8.754;2023-06-19T08:22:04;1.73;;;1.73;;
16510;SDS011;8368;48.772;8.754;2023-06-19T08:24:30;1.88;;;1.88;;
16510;SDS011;8368;48.772;8.754;2023-06-19T08:26:56;2.20;;;2.10;;
16510;SDS011;8368;48.772;8.754;2023-06-19T08:29:22;2.15;;;2.05;;
16510;SDS011;8368;48.772;8.754;2023-06-19T08:31:48;2.10;;;2.00;;
16510;SDS011;8368;48.772;8.754;2023-06-19T08:34:14;1.60;;;1.60;;
16510;SDS011;8368;48.772;8.754;2023-06-19T08:36:39;1.80;;;1.80;;
16510;SDS011;8368;48.772;8.754;2023-06-19T08:39:05;2.00;;;2.00;;
16510;SDS011;8368;48.772;8.754;2023-06-19T08:41:32;1.85;;;1.85;;
16510;SDS011;8368;48.772;8.754;2023-06-19T08:43:59;2.25;;;2.15;;
16510;SDS011;8368;48.772;8.754;2023-06-19T08:46:24;2.20;;;2.10;;
16510;SDS011;8368;48.772;8.754;2023-06-19T08:48:50;1.85;;;1.85;;
16510;SDS011;8368;48.772;8.754;2023-06-19T08:51:15;2.10;;;2.00;;
16510;SDS011;8368;48.772;8.754;2023-06-19T08:53:45;2.15;;;2.05;;
16510;SDS011;8368;48.772;8.754;2023-06-19T08:56:12;2.03;;;2.00;;
16510;SDS011;8368;48.772;8.754;2023-06-19T08:58:38;2.13;;;2.03;;
16510;SDS011;8368;48.772;8.754;2023-06-19T09:01:04;1.77;;;1.70;;
16510;SDS011;8368;48.772;8.754;2023-06-19T09:03:29;2.35;;;2.25;;
16510;SDS011;8368;48.772;8.754;2023-06-19T09:05:55;1.80;;;1.80;;
16510;SDS011;8368;48.772;8.754;2023-06-19T09:08:21;1.90;;;1.80;;
16510;SDS011;8368;48.772;8.754;2023-06-19T09:10:54;1.88;;;1.88;;
16510;SDS011;8368;48.772;8.754;2023-06-19T09:13:27;1.83;;;1.80;;
16510;SDS011;8368;48.772;8.754;2023-06-19T09:16:01;2.22;;;2.13;;
16510;SDS011;8368;48.772;8.754;2023-06-19T09:18:29;1.77;;;1.67;;
16510;SDS011;8368;48.772;8.754;2023-06-19T09:20:56;1.70;;;1.70;;
16510;SDS011;8368;48.772;8.754;2023-06-19T09:23:22;2.20;;;2.10;;
16510;SDS011;8368;48.772;8.754;2023-06-19T09:25:50;1.67;;;1.67;;
16510;SDS011;8368;48.772;8.754;2023-06-19T09:28:20;1.65;;;1.65;;
16510;SDS011;8368;48.772;8.754;2023-06-19T09:33:25;1.90;;;1.80;;
16510;SDS011;8368;48.772;8.754;2023-06-19T09:35:53;1.80;;;1.80;;
16510;SDS011;8368;48.772;8.754;2023-06-19T09:38:21;1.80;;;1.80;;
16510;SDS011;8368;48.772;8.754;2023-06-19T09:40:51;1.90;;;1.70;;
16510;SDS011;8368;48.772;8.754;2023-06-19T09:43:24;1.48;;;1.48;;
16510;SDS011;8368;48.772;8.754;2023-06-19T09:45:54;1.85;;;1.85;;
16510;SDS011;8368;48.772;8.754;2023-06-19T09:48:26;1.42;;;1.42;;
16510;SDS011;8368;48.772;8.754;2023-06-19T09:50:54;1.77;;;1.77;;
16510;SDS011;8368;48.772;8.754;2023-06-19T09:53:26;1.83;;;1.83;;
16510;SDS011;8368;48.772;8.754;2023-06-19T09:55:52;1.80;;;1.80;;
16510;SDS011;8368;48.772;8.754;2023-06-19T09:58:21;1.67;;;1.67;;
16510;SDS011;8368;48.772;8.754;2023-06-19T10:00:47;1.60;;;1.60;;
16510;SDS011;8368;48.772;8.754;2023-06-19T10:03:15;1.70;;;1.70;;
16510;SDS011;8368;48.772;8.754;2023-06-19T10:05:41;1.60;;;1.60;;
16510;SDS011;8368;48.772;8.754;2023-06-19T10:08:07;1.70;;;1.70;;
16510;SDS011;8368;48.772;8.754;2023-06-19T10:10:33;1.60;;;1.60;;
16510;SDS011;8368;48.772;8.754;2023-06-19T10:13:00;1.50;;;1.50;;
16510;SDS011;8368;48.772;8.754;2023-06-19T10:15:43;2.00;;;1.90;;
16510;SDS011;8368;48.772;8.754;2023-06-19T10:18:13;1.52;;;1.52;;
16510;SDS011;8368;48.772;8.754;2023-06-19T10:20:44;2.05;;;1.95;;
16510;SDS011;8368;48.772;8.754;2023-06-19T10:25:43;1.80;;;1.80;;
16510;SDS011;8368;48.772;8.754;2023-06-19T10:28:16;1.90;;;1.80;;
16510;SDS011;8368;48.772;8.754;2023-06-19T10:30:43;1.90;;;1.70;;
16510;SDS011;8368;48.772;8.754;2023-06-19T10:33:08;1.70;;;1.70;;
16510;SDS011;8368;48.772;8.754;2023-06-19T10:35:38;1.60;;;1.60;;
16510;SDS011;8368;48.772;8.754;2023-06-19T10:38:05;1.83;;;1.83;;
16510;SDS011;8368;48.772;8.754;2023-06-19T10:40:31;1.83;;;1.80;;
16510;SDS011;8368;48.772;8.754;2023-06-19T10:42:56;1.50;;;1.50;;
16510;SDS011;8368;48.772;8.754;2023-06-19T10:45:22;1.40;;;1.40;;
16510;SDS011;8368;48.772;8.754;2023-06-19T10:47:53;1.63;;;1.63;;
16510;SDS011;8368;48.772;8.754;2023-06-19T10:50:19;1.67;;;1.67;;
16510;SDS011;8368;48.772;8.754;2023-06-19T10:52:45;1.90;;;1.80;;
16510;SDS011;8368;48.772;8.754;2023-06-19T10:55:12;1.60;;;1.60;;
16510;SDS011;8368;48.772;8.754;2023-06-19T10:57:39;1.67;;;1.67;;
16510;SDS011;8368;48.772;8.754;2023-06-19T11:00:05;1.40;;;1.40;;
16510;SDS011;8368;48.772;8.754;2023-06-19T11:02:39;1.55;;;1.55;;
16510;SDS011;8368;48.772;8.754;2023-06-19T11:05:08;1.70;;;1.70;;
16510;SDS011;8368;48.772;8.754;2023-06-19T11:07:34;1.38;;;1.38;;
16510;SDS011;8368;48.772;8.754;2023-06-19T11:09:59;1.60;;;1.60;;
16510;SDS011;8368;48.772;8.754;2023-06-19T11:12:25;1.58;;;1.58;;
16510;SDS011;8368;48.772;8.754;2023-06-19T11:14:50;1.95;;;1.90;;
16510;SDS011;8368;48.772;8.754;2023-06-19T11:17:16;1.73;;;1.70;;
16510;SDS011;8368;48.772;8.754;2023-06-19T11:19:49;1.60;;;1.60;;
16510;SDS011;8368;48.772;8.754;2023-06-19T11:22:15;2.00;;;1.90;;
16510;SDS011;8368;48.772;8.754;2023-06-19T11:24:44;1.38;;;1.38;;
16510;SDS011;8368;48.772;8.754;2023-06-19T11:27:21;1.58;;;1.58;;
16510;SDS011;8368;48.772;8.754;2023-06-19T11:29:57;1.70;;;1.70;;
16510;SDS011;8368;48.772;8.754;2023-06-19T11:32:24;1.50;;;1.42;;
16510;SDS011;8368;48.772;8.754;2023-06-19T11:34:56;2.05;;;2.05;;
16510;SDS011;8368;48.772;8.754;2023-06-19T11:37:22;1.70;;;1.70;;
16510;SDS011;8368;48.772;8.754;2023-06-19T11:39:49;1.80;;;1.80;;
16510;SDS011;8368;48.772;8.754;2023-06-19T11:42:17;2.03;;;1.92;;
16510;SDS011;8368;48.772;8.754;2023-06-19T11:45:02;2.13;;;2.13;;
16510;SDS011;8368;48.772;8.754;2023-06-19T11:47:33;1.90;;;1.90;;
16510;SDS011;8368;48.772;8.754;2023-06-19T11:49:58;1.60;;;1.60;;
16510;SDS011;8368;48.772;8.754;2023-06-19T11:52:24;1.60;;;1.60;;
16510;SDS011;8368;48.772;8.754;2023-06-19T11:54:50;1.75;;;1.75;;
16510;SDS011;8368;48.772;8.754;2023-06-19T11:57:15;1.77;;;1.77;;
16510;SDS011;8368;48.772;8.754;2023-06-19T11:59:41;2.13;;;2.05;;
16510;SDS011;8368;48.772;8.754;2023-06-19T12:02:07;1.95;;;1.95;;
16510;SDS011;8368;48.772;8.754;2023-06-19T12:04:33;2.10;;;2.00;;
16510;SDS011;8368;48.772;8.754;2023-06-19T12:06:59;1.90;;;1.88;;
16510;SDS011;8368;48.772;8.754;2023-06-19T12:09:26;2.58;;;2.38;;
16510;SDS011;8368;48.772;8.754;2023-06-19T12:11:52;2.33;;;2.22;;
16510;SDS011;8368;48.772;8.754;2023-06-19T12:14:18;1.70;;;1.70;;
16510;SDS011;8368;48.772;8.754;2023-06-19T12:16:47;2.33;;;2.22;;
16510;SDS011;8368;48.772;8.754;2023-06-19T12:19:13;2.40;;;2.30;;
16510;SDS011;8368;48.772;8.754;2023-06-19T12:21:39;1.90;;;1.90;;
16510;SDS011;8368;48.772;8.754;2023-06-19T12:24:05;2.42;;;2.33;;
16510;SDS011;8368;48.772;8.754;2023-06-19T12:26:31;2.25;;;2.15;;
16510;SDS011;8368;48.772;8.754;2023-06-19T12:29:01;2.17;;;2.08;;
16510;SDS011;8368;48.772;8.754;2023-06-19T12:31:36;2.28;;;2.20;;
16510;SDS011;8368;48.772;8.754;2023-06-19T12:34:02;2.13;;;2.03;;
16510;SDS011;8368;48.772;8.754;2023-06-19T12:36:28;2.38;;;2.28;;
16510;SDS011;8368;48.772;8.754;2023-06-19T12:38:56;2.17;;;2.10;;
16510;SDS011;8368;48.772;8.754;2023-06-19T12:41:23;2.10;;;2.00;;
16510;SDS011;8368;48.772;8.754;2023-06-19T12:43:49;2.17;;;2.17;;
16510;SDS011;8368;48.772;8.754;2023-06-19T12:46:14;2.42;;;2.33;;
16510;SDS011;8368;48.772;8.754;2023-06-19T12:48:43;2.05;;;1.98;;
16510;SDS011;8368;48.772;8.754;2023-06-19T12:51:09;1.90;;;1.90;;
16510;SDS011;8368;48.772;8.754;2023-06-19T12:53:34;2.00;;;2.00;;
16510;SDS011;8368;48.772;8.754;2023-06-19T12:56:00;2.28;;;2.22;;
16510;SDS011;8368;48.772;8.754;2023-06-19T12:58:25;1.98;;;1.95;;
16510;SDS011;8368;48.772;8.754;2023-06-19T13:00:52;2.20;;;2.10;;
16510;SDS011;8368;48.772;8.754;2023-06-19T13:03:17;1.80;;;1.80;;
16510;SDS011;8368;48.772;8.754;2023-06-19T13:05:43;2.20;;;2.10;;
16510;SDS011;8368;48.772;8.754;2023-06-19T13:08:09;2.22;;;2.13;;
16510;SDS011;8368;48.772;8.754;2023-06-19T13:10:35;1.98;;;1.90;;
16510;SDS011;8368;48.772;8.754;2023-06-19T13:13:00;2.03;;;2.03;;
16510;SDS011;8368;48.772;8.754;2023-06-19T13:15:26;2.30;;;2.20;;
16510;SDS011;8368;48.772;8.754;2023-06-19T13:17:52;1.95;;;1.95;;
16510;SDS011;8368;48.772;8.754;2023-06-19T13:20:18;2.03;;;2.03;;
16510;SDS011;8368;48.772;8.754;2023-06-19T13:22:44;2.00;;;2.00;;
16510;SDS011;8368;48.772;8.754;2023-06-19T13:25:09;1.73;;;1.73;;
16510;SDS011;8368;48.772;8.754;2023-06-19T13:27:35;1.60;;;1.60;;
16510;SDS011;8368;48.772;8.754;2023-06-19T13:30:01;1.98;;;1.98;;
16510;SDS011;8368;48.772;8.754;2023-06-19T13:32:27;1.83;;;1.83;;
16510;SDS011;8368;48.772;8.754;2023-06-19T13:34:53;2.35;;;1.88;;
16510;SDS011;8368;48.772;8.754;2023-06-19T13:37:18;1.83;;;1.83;;
16510;SDS011;8368;48.772;8.754;2023-06-19T13:39:44;1.92;;;1.85;;
16510;SDS011;8368;48.772;8.754;2023-06-19T13:42:10;1.60;;;1.60;;
16510;SDS011;8368;48.772;8.754;2023-06-19T13:44:36;1.90;;;1.88;;
16510;SDS011;8368;48.772;8.754;2023-06-19T13:47:02;1.80;;;1.70;;
16510;SDS011;8368;48.772;8.754;2023-06-19T13:49:28;1.90;;;1.90;;
16510;SDS011;8368;48.772;8.754;2023-06-19T13:51:54;2.05;;;2.05;;
16510;SDS011;8368;48.772;8.754;2023-06-19T13:54:20;2.33;;;2.22;;
16510;SDS011;8368;48.772;8.754;2023-06-19T13:56:45;2.67;;;2.58;;
16510;SDS011;8368;48.772;8.754;2023-06-19T13:59:12;2.30;;;2.20;;
16510;SDS011;8368;48.772;8.754;2023-06-19T14:01:37;2.10;;;2.00;;
16510;SDS011;8368;48.772;8.754;2023-06-19T14:04:04;2.20;;;2.15;;
16510;SDS011;8368;48.772;8.754;2023-06-19T14:06:29;2.03;;;2.00;;
16510;SDS011;8368;48.772;8.754;2023-06-19T14:08:55;2.55;;;2.45;;
16510;SDS011;8368;48.772;8.754;2023-06-19T14:11:20;2.13;;;2.10;;
16510;SDS011;8368;48.772;8.754;2023-06-19T14:13:46;2.35;;;2.25;;
16510;SDS011;8368;48.772;8.754;2023-06-19T14:16:11;2.22;;;2.13;;
16510;SDS011;8368;48.772;8.754;2023-06-19T14:18:37;2.83;;;2.70;;
16510;SDS011;8368;48.772;8.754;2023-06-19T14:21:03;2.58;;;2.47;;
16510;SDS011;8368;48.772;8.754;2023-06-19T14:23:28;2.55;;;2.45;;
16510;SDS011;8368;48.772;8.754;2023-06-19T14:25:54;2.58;;;2.47;;
16510;SDS011;8368;48.772;8.754;2023-06-19T14:28:19;2.30;;;2.20;;
16510;SDS011;8368;48.772;8.754;2023-06-19T14:30:45;2.30;;;2.25;;
16510;SDS011;8368;48.772;8.754;2023-06-19T14:33:10;2.58;;;2.47;;
16510;SDS011;8368;48.772;8.754;2023-06-19T14:35:40;2.70;;;2.60;;
16510;SDS011;8368;48.772;8.754;2023-06-19T14:38:07;2.33;;;2.22;;
16510;SDS011;8368;48.772;8.754;2023-06-19T14:40:32;3.05;;;2.85;;
16510;SDS011;8368;48.772;8.754;2023-06-19T14:42:58;2.50;;;2.40;;
16510;SDS011;8368;48.772;8.754;2023-06-19T14:45:23;2.60;;;2.50;;
16510;SDS011;8368;48.772;8.754;2023-06-19T14:47:49;2.30;;;2.20;;
16510;SDS011;8368;48.772;8.754;2023-06-19T14:50:14;2.60;;;2.50;;
16510;SDS011;8368;48.772;8.754;2023-06-19T14:52:40;2.38;;;2.33;;
16510;SDS011;8368;48.772;8.754;2023-06-19T14:55:06;2.53;;;2.42;;
16510;SDS011;8368;48.772;8.754;2023-06-19T14:57:31;2.58;;;2.47;;
16510;SDS011;8368;48.772;8.754;2023-06-19T14:59:57;2.40;;;2.30;;
16510;SDS011;8368;48.772;8.754;2023-06-19T15:02:23;2.60;;;2.50;;
16510;SDS011;8368;48.772;8.754;2023-06-19T15:04:48;2.60;;;2.50;;
16510;SDS011;8368;48.772;8.754;2023-06-19T15:07:13;2.30;;;2.20;;